Apache Junction, AZ

4:10 PM MST on July 02, 2015 (GMT -0700)
Superstition Foothills | | Change Station
CLOSE
Current Station
Personal Weather Station
Location: Apache Junction, AZ
Elevation: 1916 ft
Nearby Weather Stations

Elev 1916 ft 33.41 °N, 111.47 °W | Updated 3 minutes ago

Clear
Clear
104.2 °F
Feels Like 104 °F
N
6.0
Wind Variable Wind from SSW
Gusts 14.0 mph

Today
High -- | Low -- °F
--% Chance of Precip.
Yesterday
High -- | Low -- °F
Precip. -- in
5:19 AM 7:38 PM
Full, 99% visible
Pressure 29.82 in
Visibility 45.0 miles
Clouds Few 25000 ft
Heat Index 104 °F
Dew Point 58 °F
Humidity 22%
Rainfall 0.00 in
Snow Depth Not available.
UV 6 out of 12
Pollen 3.90 out of 12
Air Quality Not available.
Flu Activity Not available.
METAR KIWA 022247Z 26009KT 45SM FEW250 39/15 A2982

More Conditions Fewer Conditions

Pressure 29.82 in
Visibility 45.0 miles
Clouds Few 25000 ft
Heat Index 104 °F
Dew Point 58 °F
Humidity 22%
Rainfall 0.00 in
Snow Depth Not available.
UV 6 out of 12
Pollen 3.90 out of 12
Air Quality Not available.
Flu Activity Not available.
METAR KIWA 022247Z 26009KT 45SM FEW250 39/15 A2982

More Conditions Fewer Conditions

10-Day Weather Forecast

×

Almanac

Astronomy

Jul. 02, 2015 Rise Set
Actual Time
Civil Twilight
Nautical Twilight
Astronomical Twilight
Moon
Length of Visible Light
Length of Day
Tomorrow will be .
, % of the Moon is Illuminated

Today's Extremes

State Highs State Lows

Community

WunderPhotos

Upload Photos

1,834,564 photos uploaded!

WunderBlogs® & News

Nearby

Air Quality

  Air Quality AQ Index Pollutant
Not available.

Snow Depth

Station Depth Elevation

Earthquake Activity

City Distance Mag. Time & Date
Minimum magnitude displayed is 2.5.

Coastal Water Temperatures

Place Temperature

Stations

Nearby Weather Stations

Station Location Temp. Windchill Dew Point Humidity Wind Precip. Elev Updated Type